ISR47 LLBG-LLER
Flight info
| Callsign | ISR47 |
|---|---|
| Flight time | 0h 33m |
| Altitude | 17000 |
| Route | TOMAL J10 NURIT |
| Aircraft | A320/M-SDE3FGHIRWY/LB1 |
Departure
| Time | 2026-04-25 18:09 |
|---|---|
| Airport | Ben Gurion International Airport (LLBG) |
Arrival
| Time | 2026-04-25 18:43 |
|---|---|
| Airport | Ramon International Airport (LLER) |
| Time | Latitude | Longitude | Altitude | Speed | Heading |
|---|---|---|---|---|---|
| 2026-04-25 17:21 | 32.00759 | 34.86894 | 117 ft | 0 kts | 301° |
| 2026-04-25 17:53 | 32.00754 | 34.86905 | 117 ft | 4 kts | 301° |
| 2026-04-25 17:53 | 32.00740 | 34.86932 | 116 ft | 4 kts | 301° |
| 2026-04-25 17:54 | 32.00725 | 34.86955 | 116 ft | 4 kts | 337° |
| 2026-04-25 17:54 | 32.00702 | 34.86954 | 117 ft | 4 kts | 28° |
| 2026-04-25 17:54 | 32.00693 | 34.86948 | 116 ft | 1 kts | 31° |
| 2026-04-25 18:00 | 32.00694 | 34.86949 | 117 ft | 2 kts | 31° |
| 2026-04-25 18:01 | 32.00714 | 34.86963 | 117 ft | 5 kts | 31° |
| 2026-04-25 18:01 | 32.00753 | 34.86991 | 118 ft | 8 kts | 31° |
| 2026-04-25 18:01 | 32.00812 | 34.87034 | 120 ft | 12 kts | 31° |
| 2026-04-25 18:01 | 32.00893 | 34.87092 | 117 ft | 15 kts | 31° |
| 2026-04-25 18:02 | 32.00934 | 34.87191 | 118 ft | 15 kts | 115° |
| 2026-04-25 18:02 | 32.00872 | 34.87311 | 116 ft | 19 kts | 121° |
| 2026-04-25 18:02 | 32.00823 | 34.87407 | 119 ft | 14 kts | 121° |
| 2026-04-25 18:02 | 32.00768 | 34.87515 | 120 ft | 17 kts | 121° |
| 2026-04-25 18:03 | 32.00707 | 34.87630 | 117 ft | 13 kts | 123° |
| 2026-04-25 18:03 | 32.00652 | 34.87734 | 119 ft | 17 kts | 122° |
| 2026-04-25 18:03 | 32.00597 | 34.87839 | 118 ft | 11 kts | 121° |
| 2026-04-25 18:03 | 32.00599 | 34.87924 | 117 ft | 9 kts | 44° |
| 2026-04-25 18:04 | 32.00637 | 34.87954 | 119 ft | 0 kts | 33° |
| 2026-04-25 18:05 | 32.00645 | 34.87961 | 115 ft | 3 kts | 33° |
| 2026-04-25 18:05 | 32.00677 | 34.87985 | 119 ft | 7 kts | 33° |
| 2026-04-25 18:05 | 32.00730 | 34.88024 | 120 ft | 10 kts | 31° |
| 2026-04-25 18:05 | 32.00801 | 34.88075 | 117 ft | 14 kts | 32° |
| 2026-04-25 18:06 | 32.00892 | 34.88141 | 116 ft | 17 kts | 31° |
| 2026-04-25 18:06 | 32.01006 | 34.88223 | 118 ft | 21 kts | 32° |
| 2026-04-25 18:06 | 32.01114 | 34.88300 | 119 ft | 19 kts | 30° |
| 2026-04-25 18:06 | 32.01223 | 34.88378 | 117 ft | 18 kts | 34° |
| 2026-04-25 18:07 | 32.01330 | 34.88482 | 118 ft | 22 kts | 48° |
| 2026-04-25 18:07 | 32.01427 | 34.88631 | 120 ft | 21 kts | 60° |
| 2026-04-25 18:07 | 32.01487 | 34.88800 | 118 ft | 24 kts | 74° |
| 2026-04-25 18:07 | 32.01516 | 34.88983 | 118 ft | 21 kts | 81° |
| 2026-04-25 18:08 | 32.01548 | 34.89130 | 118 ft | 14 kts | 56° |
| 2026-04-25 18:08 | 32.01643 | 34.89153 | 118 ft | 16 kts | 350° |
| 2026-04-25 18:08 | 32.01735 | 34.89127 | 115 ft | 10 kts | 323° |
| 2026-04-25 18:08 | 32.01731 | 34.88978 | 119 ft | 47 kts | 259° |
| 2026-04-25 18:09 | 32.01630 | 34.88295 | 118 ft | 119 kts | 261° |
| 2026-04-25 18:09 | 32.01479 | 34.87142 | 299 ft | 157 kts | 260° |
| 2026-04-25 18:09 | 32.01277 | 34.85801 | 791 ft | 174 kts | 261° |
| 2026-04-25 18:09 | 32.01122 | 34.84846 | 1122 ft | 185 kts | 255° |
| 2026-04-25 18:10 | 31.99965 | 34.83411 | 1967 ft | 195 kts | 195° |
| 2026-04-25 18:10 | 31.98627 | 34.83533 | 2675 ft | 199 kts | 154° |
| 2026-04-25 18:10 | 31.97678 | 34.84700 | 3370 ft | 204 kts | 114° |
| 2026-04-25 18:10 | 31.97205 | 34.86310 | 4025 ft | 211 kts | 108° |
| 2026-04-25 18:11 | 31.96758 | 34.87965 | 4751 ft | 214 kts | 108° |
| 2026-04-25 18:11 | 31.96309 | 34.89642 | 5472 ft | 216 kts | 108° |
| 2026-04-25 18:11 | 31.95850 | 34.91340 | 6186 ft | 219 kts | 109° |
| 2026-04-25 18:11 | 31.95387 | 34.93031 | 6871 ft | 221 kts | 109° |
| 2026-04-25 18:12 | 31.94913 | 34.94758 | 7599 ft | 222 kts | 110° |
| 2026-04-25 18:12 | 31.94363 | 34.96471 | 8272 ft | 228 kts | 116° |
| 2026-04-25 18:12 | 31.93685 | 34.98248 | 8782 ft | 248 kts | 117° |
| 2026-04-25 18:12 | 31.92919 | 35.00211 | 8974 ft | 279 kts | 117° |
| 2026-04-25 18:13 | 31.92077 | 35.02363 | 9147 ft | 293 kts | 116° |
| 2026-04-25 18:13 | 31.91227 | 35.04549 | 9888 ft | 296 kts | 116° |
| 2026-04-25 18:13 | 31.90356 | 35.06795 | 10558 ft | 309 kts | 116° |
| 2026-04-25 18:14 | 31.88483 | 35.11612 | 11567 ft | 341 kts | 117° |
| 2026-04-25 18:14 | 31.87492 | 35.14171 | 12319 ft | 346 kts | 116° |
| 2026-04-25 18:14 | 31.86488 | 35.16763 | 13139 ft | 350 kts | 116° |
| 2026-04-25 18:14 | 31.85473 | 35.19383 | 13934 ft | 354 kts | 117° |
| 2026-04-25 18:15 | 31.84447 | 35.22029 | 14649 ft | 358 kts | 117° |
| 2026-04-25 18:15 | 31.83408 | 35.24704 | 15348 ft | 362 kts | 117° |
| 2026-04-25 18:15 | 31.82354 | 35.27410 | 16038 ft | 366 kts | 117° |
| 2026-04-25 18:15 | 31.81303 | 35.30109 | 16682 ft | 370 kts | 117° |
| 2026-04-25 18:16 | 31.80227 | 35.32871 | 16945 ft | 372 kts | 117° |
| 2026-04-25 18:16 | 31.79150 | 35.35631 | 16930 ft | 371 kts | 117° |
| 2026-04-25 18:16 | 31.76863 | 35.41037 | 16923 ft | 366 kts | 128° |
| 2026-04-25 18:17 | 31.75196 | 35.43266 | 16923 ft | 361 kts | 142° |
| 2026-04-25 18:17 | 31.73164 | 35.44960 | 16925 ft | 357 kts | 155° |
| 2026-04-25 18:17 | 31.70884 | 35.46064 | 16919 ft | 353 kts | 167° |
| 2026-04-25 18:17 | 31.68516 | 35.46564 | 16920 ft | 350 kts | 178° |
| 2026-04-25 18:18 | 31.66094 | 35.46507 | 16920 ft | 348 kts | 189° |
| 2026-04-25 18:18 | 31.63721 | 35.45992 | 16919 ft | 347 kts | 193° |
| 2026-04-25 18:18 | 31.61353 | 35.45432 | 16916 ft | 347 kts | 193° |
| 2026-04-25 18:18 | 31.58984 | 35.44887 | 16918 ft | 347 kts | 192° |
| 2026-04-25 18:19 | 31.56614 | 35.44359 | 16923 ft | 347 kts | 192° |
| 2026-04-25 18:19 | 31.54239 | 35.43838 | 16918 ft | 347 kts | 192° |
| 2026-04-25 18:19 | 31.53569 | 35.43691 | 16921 ft | 347 kts | 192° |
| 2026-04-25 18:19 | 31.51429 | 35.43227 | 16917 ft | 347 kts | 192° |
| 2026-04-25 18:20 | 31.49054 | 35.42705 | 16919 ft | 347 kts | 192° |
| 2026-04-25 18:20 | 31.46682 | 35.42177 | 16919 ft | 347 kts | 192° |
| 2026-04-25 18:20 | 31.44311 | 35.41649 | 16920 ft | 347 kts | 192° |
| 2026-04-25 18:20 | 31.41943 | 35.41123 | 16911 ft | 347 kts | 192° |
| 2026-04-25 18:21 | 31.39569 | 35.40597 | 16912 ft | 347 kts | 192° |
| 2026-04-25 18:21 | 31.37199 | 35.40072 | 16907 ft | 347 kts | 192° |
| 2026-04-25 18:21 | 31.34826 | 35.39544 | 16917 ft | 347 kts | 192° |
| 2026-04-25 18:21 | 31.32444 | 35.39091 | 16913 ft | 348 kts | 187° |
| 2026-04-25 18:22 | 31.30063 | 35.38841 | 16912 ft | 348 kts | 187° |
| 2026-04-25 18:22 | 31.29248 | 35.38755 | 16917 ft | 348 kts | 187° |
| 2026-04-25 18:22 | 31.25235 | 35.38336 | 16909 ft | 348 kts | 187° |
| 2026-04-25 18:22 | 31.22822 | 35.38083 | 16917 ft | 348 kts | 187° |
| 2026-04-25 18:23 | 31.20409 | 35.37832 | 16917 ft | 348 kts | 187° |
| 2026-04-25 18:23 | 31.17996 | 35.37579 | 16914 ft | 348 kts | 187° |
| 2026-04-25 18:23 | 31.15583 | 35.37323 | 16915 ft | 348 kts | 187° |
| 2026-04-25 18:23 | 31.13203 | 35.37072 | 16909 ft | 348 kts | 187° |
| 2026-04-25 18:24 | 31.10788 | 35.36821 | 16913 ft | 348 kts | 187° |
| 2026-04-25 18:24 | 31.08374 | 35.36571 | 16913 ft | 348 kts | 187° |
| 2026-04-25 18:24 | 31.05958 | 35.36320 | 16915 ft | 349 kts | 187° |
| 2026-04-25 18:24 | 31.03542 | 35.36072 | 16913 ft | 349 kts | 186° |
| 2026-04-25 18:25 | 31.01124 | 35.35827 | 16916 ft | 349 kts | 186° |
| 2026-04-25 18:25 | 30.98707 | 35.35582 | 16916 ft | 349 kts | 187° |
| 2026-04-25 18:25 | 30.96285 | 35.35334 | 16915 ft | 349 kts | 187° |
| 2026-04-25 18:25 | 30.93942 | 35.34832 | 16916 ft | 347 kts | 198° |
| 2026-04-25 18:26 | 30.91695 | 35.33821 | 16917 ft | 346 kts | 204° |
| 2026-04-25 18:26 | 30.89479 | 35.32714 | 16914 ft | 346 kts | 204° |
| 2026-04-25 18:26 | 30.87264 | 35.31615 | 16914 ft | 346 kts | 204° |
| 2026-04-25 18:26 | 30.85048 | 35.30517 | 16912 ft | 346 kts | 204° |
| 2026-04-25 18:27 | 30.82848 | 35.29431 | 16771 ft | 338 kts | 204° |
| 2026-04-25 18:27 | 30.80713 | 35.28384 | 16514 ft | 328 kts | 204° |
| 2026-04-25 18:27 | 30.78624 | 35.27363 | 16263 ft | 326 kts | 204° |
| 2026-04-25 18:27 | 30.76565 | 35.26355 | 16017 ft | 325 kts | 204° |
| 2026-04-25 18:28 | 30.74484 | 35.25334 | 15768 ft | 324 kts | 204° |
| 2026-04-25 18:28 | 30.72407 | 35.24312 | 15512 ft | 324 kts | 204° |
| 2026-04-25 18:28 | 30.70336 | 35.23291 | 15272 ft | 323 kts | 204° |
| 2026-04-25 18:29 | 30.66212 | 35.21257 | 14791 ft | 321 kts | 204° |
| 2026-04-25 18:29 | 30.64155 | 35.20246 | 14556 ft | 321 kts | 204° |
| 2026-04-25 18:30 | 30.58037 | 35.17253 | 13854 ft | 318 kts | 204° |
| 2026-04-25 18:30 | 30.55979 | 35.16314 | 13613 ft | 318 kts | 199° |
| 2026-04-25 18:30 | 30.53813 | 35.15783 | 13350 ft | 319 kts | 191° |
| 2026-04-25 18:30 | 30.51630 | 35.15369 | 13094 ft | 317 kts | 192° |
| 2026-04-25 18:31 | 30.49457 | 35.14954 | 12834 ft | 316 kts | 192° |
| 2026-04-25 18:31 | 30.47290 | 35.14537 | 12580 ft | 315 kts | 192° |
| 2026-04-25 18:31 | 30.45137 | 35.14119 | 12327 ft | 313 kts | 192° |
| 2026-04-25 18:31 | 30.42988 | 35.13700 | 12078 ft | 312 kts | 192° |
| 2026-04-25 18:32 | 30.40880 | 35.13294 | 11844 ft | 311 kts | 191° |
| 2026-04-25 18:32 | 30.38748 | 35.12885 | 11584 ft | 310 kts | 191° |
| 2026-04-25 18:32 | 30.36621 | 35.12477 | 11339 ft | 310 kts | 191° |
| 2026-04-25 18:32 | 30.34500 | 35.12072 | 11098 ft | 309 kts | 191° |
| 2026-04-25 18:33 | 30.32383 | 35.11664 | 10858 ft | 308 kts | 191° |
| 2026-04-25 18:33 | 30.30274 | 35.11260 | 10614 ft | 307 kts | 191° |
| 2026-04-25 18:33 | 30.28171 | 35.10861 | 10376 ft | 306 kts | 191° |
| 2026-04-25 18:33 | 30.26070 | 35.10466 | 10141 ft | 305 kts | 191° |
| 2026-04-25 18:34 | 30.24009 | 35.10081 | 9913 ft | 303 kts | 191° |
| 2026-04-25 18:34 | 30.21964 | 35.09699 | 9767 ft | 292 kts | 191° |
| 2026-04-25 18:34 | 30.20002 | 35.09308 | 9612 ft | 284 kts | 192° |
| 2026-04-25 18:34 | 30.18041 | 35.08901 | 9093 ft | 288 kts | 192° |
| 2026-04-25 18:35 | 30.16062 | 35.08483 | 8631 ft | 289 kts | 192° |
| 2026-04-25 18:35 | 30.14100 | 35.08073 | 8046 ft | 285 kts | 192° |
| 2026-04-25 18:35 | 30.12160 | 35.07670 | 7439 ft | 281 kts | 192° |
| 2026-04-25 18:35 | 30.10279 | 35.07277 | 7083 ft | 271 kts | 192° |
| 2026-04-25 18:36 | 30.08477 | 35.06903 | 6920 ft | 255 kts | 192° |
| 2026-04-25 18:36 | 30.06755 | 35.06613 | 6701 ft | 249 kts | 183° |
| 2026-04-25 18:36 | 30.04995 | 35.06671 | 6385 ft | 256 kts | 179° |
| 2026-04-25 18:36 | 30.03213 | 35.06754 | 6042 ft | 254 kts | 179° |
| 2026-04-25 18:37 | 30.01469 | 35.06833 | 5463 ft | 251 kts | 179° |
| 2026-04-25 18:37 | 29.99714 | 35.06910 | 4864 ft | 253 kts | 179° |
| 2026-04-25 18:37 | 29.97974 | 35.06982 | 4365 ft | 245 kts | 180° |
| 2026-04-25 18:37 | 29.96374 | 35.07051 | 4307 ft | 224 kts | 180° |
| 2026-04-25 18:38 | 29.94866 | 35.07116 | 4236 ft | 210 kts | 180° |
| 2026-04-25 18:38 | 29.93438 | 35.07161 | 4163 ft | 202 kts | 186° |
| 2026-04-25 18:38 | 29.92061 | 35.06865 | 3832 ft | 203 kts | 197° |
| 2026-04-25 18:38 | 29.90706 | 35.06464 | 3499 ft | 200 kts | 197° |
| 2026-04-25 18:39 | 29.89353 | 35.06074 | 3222 ft | 200 kts | 197° |
| 2026-04-25 18:39 | 29.88012 | 35.05696 | 2980 ft | 198 kts | 196° |
| 2026-04-25 18:39 | 29.86683 | 35.05322 | 2743 ft | 195 kts | 194° |
| 2026-04-25 18:39 | 29.85400 | 35.04962 | 2508 ft | 190 kts | 194° |
| 2026-04-25 18:40 | 29.84178 | 35.04619 | 2276 ft | 172 kts | 193° |
| 2026-04-25 18:40 | 29.83076 | 35.04310 | 2051 ft | 154 kts | 193° |
| 2026-04-25 18:40 | 29.82082 | 35.04032 | 1854 ft | 140 kts | 193° |
| 2026-04-25 18:40 | 29.81167 | 35.03775 | 1663 ft | 134 kts | 194° |
| 2026-04-25 18:41 | 29.80256 | 35.03520 | 1467 ft | 137 kts | 195° |
| 2026-04-25 18:41 | 29.79327 | 35.03259 | 1275 ft | 139 kts | 195° |
| 2026-04-25 18:41 | 29.78406 | 35.03001 | 1107 ft | 137 kts | 194° |
| 2026-04-25 18:41 | 29.77493 | 35.02745 | 932 ft | 134 kts | 194° |
| 2026-04-25 18:42 | 29.76596 | 35.02494 | 768 ft | 131 kts | 193° |
| 2026-04-25 18:42 | 29.76297 | 35.02412 | 710 ft | 131 kts | 193° |
| 2026-04-25 18:42 | 29.74837 | 35.01984 | 447 ft | 131 kts | 194° |
| 2026-04-25 18:42 | 29.73950 | 35.01759 | 304 ft | 130 kts | 190° |
| 2026-04-25 18:43 | 29.73101 | 35.01516 | 296 ft | 98 kts | 196° |
| 2026-04-25 18:43 | 29.72718 | 35.01410 | 300 ft | 32 kts | 194° |
| 2026-04-25 18:43 | 29.72495 | 35.01348 | 296 ft | 33 kts | 192° |
| 2026-04-25 18:43 | 29.72389 | 35.01251 | 302 ft | 14 kts | 291° |
| 2026-04-25 18:44 | 29.72411 | 35.01137 | 302 ft | 16 kts | 271° |
| 2026-04-25 18:44 | 29.72405 | 35.01001 | 297 ft | 19 kts | 287° |
| 2026-04-25 18:44 | 29.72435 | 35.00871 | 297 ft | 17 kts | 283° |
| 2026-04-25 18:44 | 29.72455 | 35.00777 | 303 ft | 6 kts | 284° |
| 2026-04-25 18:45 | 29.72458 | 35.00766 | 301 ft | 0 kts | 284° |